sensor_id;sensor_type;location;lat;lon;timestamp;pressure;altitude;pressure_sealevel;temperature;humidity
62164;BME280;48149;51.132;7.178;2023-08-30T00:00:02;97996.28;;;42.16;24.43
62164;BME280;48149;51.132;7.178;2023-08-30T00:02:27;97998.88;;;41.81;24.48
62164;BME280;48149;51.132;7.178;2023-08-30T00:04:56;98008.69;;;40.37;25.81
62164;BME280;48149;51.132;7.178;2023-08-30T00:07:22;98013.53;;;40.29;26.20
62164;BME280;48149;51.132;7.178;2023-08-30T00:09:47;98007.38;;;41.26;24.89
62164;BME280;48149;51.132;7.178;2023-08-30T00:12:13;98010.63;;;40.56;25.81
62164;BME280;48149;51.132;7.178;2023-08-30T00:14:38;97996.25;;;40.84;25.96
62164;BME280;48149;51.132;7.178;2023-08-30T00:17:04;98011.38;;;40.57;26.07
62164;BME280;48149;51.132;7.178;2023-08-30T00:19:29;98000.56;;;41.46;24.96
62164;BME280;48149;51.132;7.178;2023-08-30T00:21:54;98003.03;;;42.52;24.14
62164;BME280;48149;51.132;7.178;2023-08-30T00:24:19;98003.50;;;42.51;23.90
62164;BME280;48149;51.132;7.178;2023-08-30T00:26:44;98006.66;;;42.37;23.80
62164;BME280;48149;51.132;7.178;2023-08-30T00:29:09;97997.19;;;42.88;23.28
62164;BME280;48149;51.132;7.178;2023-08-30T00:31:35;98003.47;;;42.26;23.88
62164;BME280;48149;51.132;7.178;2023-08-30T00:34:00;98005.28;;;42.03;24.12
62164;BME280;48149;51.132;7.178;2023-08-30T00:36:25;98006.06;;;42.04;23.89
62164;BME280;48149;51.132;7.178;2023-08-30T00:38:50;98004.41;;;42.07;23.98
62164;BME280;48149;51.132;7.178;2023-08-30T00:41:16;98002.03;;;41.51;24.31
62164;BME280;48149;51.132;7.178;2023-08-30T00:43:41;97998.78;;;41.97;24.10
62164;BME280;48149;51.132;7.178;2023-08-30T00:46:06;97993.22;;;39.87;26.64
62164;BME280;48149;51.132;7.178;2023-08-30T00:48:32;97988.75;;;38.88;27.28
62164;BME280;48149;51.132;7.178;2023-08-30T00:50:57;97992.41;;;39.05;27.74
62164;BME280;48149;51.132;7.178;2023-08-30T00:53:22;97987.41;;;39.85;26.64
62164;BME280;48149;51.132;7.178;2023-08-30T00:55:48;97998.44;;;40.02;26.57
62164;BME280;48149;51.132;7.178;2023-08-30T00:58:13;97993.28;;;39.64;26.19
62164;BME280;48149;51.132;7.178;2023-08-30T01:00:39;97995.56;;;40.09;26.23
62164;BME280;48149;51.132;7.178;2023-08-30T01:03:05;97980.53;;;41.91;24.24
62164;BME280;48149;51.132;7.178;2023-08-30T01:05:30;97982.84;;;41.64;24.46
62164;BME280;48149;51.132;7.178;2023-08-30T01:07:56;97977.81;;;41.46;24.52
62164;BME280;48149;51.132;7.178;2023-08-30T01:10:22;97978.94;;;41.77;24.41
62164;BME280;48149;51.132;7.178;2023-08-30T01:12:51;97976.00;;;41.97;23.82
62164;BME280;48149;51.132;7.178;2023-08-30T01:15:19;97967.13;;;39.40;26.62
62164;BME280;48149;51.132;7.178;2023-08-30T01:17:44;97963.44;;;38.80;27.51
62164;BME280;48149;51.132;7.178;2023-08-30T01:20:12;97959.75;;;39.37;27.67
62164;BME280;48149;51.132;7.178;2023-08-30T01:22:47;97957.94;;;39.07;27.60
62164;BME280;48149;51.132;7.178;2023-08-30T01:25:17;97945.09;;;39.86;26.45
62164;BME280;48149;51.132;7.178;2023-08-30T01:27:47;97952.44;;;41.83;24.81
62164;BME280;48149;51.132;7.178;2023-08-30T01:30:13;97951.16;;;38.92;27.25
62164;BME280;48149;51.132;7.178;2023-08-30T01:32:40;97948.09;;;39.10;27.61
62164;BME280;48149;51.132;7.178;2023-08-30T01:35:06;97942.53;;;38.43;28.04
62164;BME280;48149;51.132;7.178;2023-08-30T01:37:32;97941.28;;;38.48;28.38
62164;BME280;48149;51.132;7.178;2023-08-30T01:39:57;97935.44;;;40.18;26.62
62164;BME280;48149;51.132;7.178;2023-08-30T01:42:26;97943.53;;;39.66;26.84
62164;BME280;48149;51.132;7.178;2023-08-30T01:44:52;97941.34;;;40.84;25.54
62164;BME280;48149;51.132;7.178;2023-08-30T01:47:20;97945.75;;;39.74;26.56
62164;BME280;48149;51.132;7.178;2023-08-30T01:49:45;97936.59;;;38.18;28.24
62164;BME280;48149;51.132;7.178;2023-08-30T01:52:11;97934.66;;;37.55;29.33
62164;BME280;48149;51.132;7.178;2023-08-30T01:54:38;97929.94;;;37.89;28.76
62164;BME280;48149;51.132;7.178;2023-08-30T01:57:04;97939.91;;;39.72;27.07
62164;BME280;48149;51.132;7.178;2023-08-30T01:59:29;97939.41;;;40.49;26.12
62164;BME280;48149;51.132;7.178;2023-08-30T02:01:54;97944.78;;;38.99;27.34
62164;BME280;48149;51.132;7.178;2023-08-30T02:04:20;97948.59;;;38.81;28.25
62164;BME280;48149;51.132;7.178;2023-08-30T02:06:48;97949.50;;;40.20;26.39
62164;BME280;48149;51.132;7.178;2023-08-30T02:09:26;97945.69;;;38.92;28.24
62164;BME280;48149;51.132;7.178;2023-08-30T02:11:54;97945.19;;;39.83;26.75
62164;BME280;48149;51.132;7.178;2023-08-30T02:14:20;97933.59;;;40.63;26.12
62164;BME280;48149;51.132;7.178;2023-08-30T02:16:46;97939.72;;;40.19;26.47
62164;BME280;48149;51.132;7.178;2023-08-30T02:19:12;97937.06;;;41.44;25.12
62164;BME280;48149;51.132;7.178;2023-08-30T02:21:39;97944.09;;;41.01;25.55
62164;BME280;48149;51.132;7.178;2023-08-30T02:24:05;97946.44;;;39.59;27.18
62164;BME280;48149;51.132;7.178;2023-08-30T02:26:30;97945.41;;;39.06;27.65
62164;BME280;48149;51.132;7.178;2023-08-30T02:28:55;97950.84;;;39.92;26.96
62164;BME280;48149;51.132;7.178;2023-08-30T02:31:20;97951.84;;;39.82;26.79
62164;BME280;48149;51.132;7.178;2023-08-30T02:33:45;97949.16;;;39.16;27.60
62164;BME280;48149;51.132;7.178;2023-08-30T02:36:10;97946.66;;;39.68;26.93
62164;BME280;48149;51.132;7.178;2023-08-30T02:38:36;97939.63;;;40.74;25.92
62164;BME280;48149;51.132;7.178;2023-08-30T02:41:01;97946.47;;;42.51;23.94
62164;BME280;48149;51.132;7.178;2023-08-30T02:43:26;97943.13;;;43.29;23.31
62164;BME280;48149;51.132;7.178;2023-08-30T02:45:51;97946.78;;;42.16;23.91
62164;BME280;48149;51.132;7.178;2023-08-30T02:48:17;97937.88;;;42.24;23.84
62164;BME280;48149;51.132;7.178;2023-08-30T02:50:42;97938.75;;;41.10;25.22
62164;BME280;48149;51.132;7.178;2023-08-30T02:53:08;97932.81;;;40.46;25.79
62164;BME280;48149;51.132;7.178;2023-08-30T02:55:33;97940.13;;;39.62;26.68
62164;BME280;48149;51.132;7.178;2023-08-30T02:57:59;97931.75;;;39.29;26.98
62164;BME280;48149;51.132;7.178;2023-08-30T03:00:24;97926.56;;;40.46;25.47
62164;BME280;48149;51.132;7.178;2023-08-30T03:02:49;97927.78;;;40.09;25.58
62164;BME280;48149;51.132;7.178;2023-08-30T03:05:15;97931.59;;;39.36;26.69
62164;BME280;48149;51.132;7.178;2023-08-30T03:07:40;97923.53;;;41.21;24.66
62164;BME280;48149;51.132;7.178;2023-08-30T03:10:05;97919.75;;;39.20;26.88
62164;BME280;48149;51.132;7.178;2023-08-30T03:12:30;97922.00;;;41.04;24.88
62164;BME280;48149;51.132;7.178;2023-08-30T03:14:56;97920.03;;;41.91;23.63
62164;BME280;48149;51.132;7.178;2023-08-30T03:17:21;97920.69;;;41.25;24.23
62164;BME280;48149;51.132;7.178;2023-08-30T03:19:46;97909.38;;;41.23;24.21
62164;BME280;48149;51.132;7.178;2023-08-30T03:22:12;97909.06;;;40.88;24.66
62164;BME280;48149;51.132;7.178;2023-08-30T03:24:37;97908.78;;;40.50;25.02
62164;BME280;48149;51.132;7.178;2023-08-30T03:27:02;97910.22;;;39.28;26.39
62164;BME280;48149;51.132;7.178;2023-08-30T03:29:28;97905.06;;;39.73;25.97
62164;BME280;48149;51.132;7.178;2023-08-30T03:31:53;97901.22;;;38.84;27.25
62164;BME280;48149;51.132;7.178;2023-08-30T03:34:19;97913.28;;;39.73;26.34
62164;BME280;48149;51.132;7.178;2023-08-30T03:36:44;97904.66;;;40.10;25.72
62164;BME280;48149;51.132;7.178;2023-08-30T03:39:10;97898.09;;;40.24;25.38
62164;BME280;48149;51.132;7.178;2023-08-30T03:41:35;97905.78;;;39.77;25.64
62164;BME280;48149;51.132;7.178;2023-08-30T03:44:00;97910.47;;;38.44;27.17
62164;BME280;48149;51.132;7.178;2023-08-30T03:46:25;97908.19;;;40.11;25.36
62164;BME280;48149;51.132;7.178;2023-08-30T03:48:51;97911.16;;;39.41;25.85
62164;BME280;48149;51.132;7.178;2023-08-30T03:51:17;97907.19;;;40.01;25.29
62164;BME280;48149;51.132;7.178;2023-08-30T03:53:42;97902.81;;;38.32;26.94
62164;BME280;48149;51.132;7.178;2023-08-30T03:56:07;97904.13;;;39.60;26.01
62164;BME280;48149;51.132;7.178;2023-08-30T03:58:32;97900.22;;;40.48;24.89
62164;BME280;48149;51.132;7.178;2023-08-30T04:00:58;97894.06;;;38.44;26.73
62164;BME280;48149;51.132;7.178;2023-08-30T04:03:23;97891.63;;;39.78;25.50
62164;BME280;48149;51.132;7.178;2023-08-30T04:05:54;97897.41;;;39.02;26.23
62164;BME280;48149;51.132;7.178;2023-08-30T04:08:19;97889.34;;;40.77;24.71
62164;BME280;48149;51.132;7.178;2023-08-30T04:10:44;97897.66;;;39.89;25.32
62164;BME280;48149;51.132;7.178;2023-08-30T04:13:12;97900.50;;;39.04;26.56
62164;BME280;48149;51.132;7.178;2023-08-30T04:15:38;97886.41;;;38.05;27.92
62164;BME280;48149;51.132;7.178;2023-08-30T04:18:04;97886.09;;;38.53;26.77
62164;BME280;48149;51.132;7.178;2023-08-30T04:20:29;97889.78;;;37.56;27.44
62164;BME280;48149;51.132;7.178;2023-08-30T04:22:55;97875.31;;;37.59;28.93
62164;BME280;48149;51.132;7.178;2023-08-30T04:25:21;97878.13;;;36.73;29.11
62164;BME280;48149;51.132;7.178;2023-08-30T04:27:47;97875.94;;;36.58;29.62
62164;BME280;48149;51.132;7.178;2023-08-30T04:30:12;97878.38;;;36.89;29.28
62164;BME280;48149;51.132;7.178;2023-08-30T04:32:37;97875.81;;;37.80;28.50
62164;BME280;48149;51.132;7.178;2023-08-30T04:35:03;97878.22;;;36.08;29.92
62164;BME280;48149;51.132;7.178;2023-08-30T04:37:29;97888.66;;;36.75;29.76
62164;BME280;48149;51.132;7.178;2023-08-30T04:39:55;97878.44;;;36.82;29.35
62164;BME280;48149;51.132;7.178;2023-08-30T04:42:20;97877.06;;;37.05;28.75
62164;BME280;48149;51.132;7.178;2023-08-30T04:44:45;97869.56;;;38.10;27.63
62164;BME280;48149;51.132;7.178;2023-08-30T04:47:10;97871.00;;;36.86;29.13
62164;BME280;48149;51.132;7.178;2023-08-30T04:49:35;97870.66;;;37.22;28.47
62164;BME280;48149;51.132;7.178;2023-08-30T04:52:01;97879.03;;;34.75;32.20
62164;BME280;48149;51.132;7.178;2023-08-30T04:54:26;97867.94;;;35.53;31.03
62164;BME280;48149;51.132;7.178;2023-08-30T04:56:51;97870.41;;;37.47;28.61
62164;BME280;48149;51.132;7.178;2023-08-30T04:59:16;97865.91;;;37.63;28.14
62164;BME280;48149;51.132;7.178;2023-08-30T05:01:42;97867.38;;;36.59;28.85
62164;BME280;48149;51.132;7.178;2023-08-30T05:04:09;97869.53;;;36.27;30.07
62164;BME280;48149;51.132;7.178;2023-08-30T05:06:34;97865.88;;;36.44;29.34
62164;BME280;48149;51.132;7.178;2023-08-30T05:08:59;97863.09;;;36.51;29.30
62164;BME280;48149;51.132;7.178;2023-08-30T05:11:25;97859.38;;;35.62;30.62
62164;BME280;48149;51.132;7.178;2023-08-30T05:13:50;97854.50;;;35.04;31.68
62164;BME280;48149;51.132;7.178;2023-08-30T05:16:15;97857.06;;;36.77;29.63
62164;BME280;48149;51.132;7.178;2023-08-30T05:18:40;97860.66;;;37.08;29.30
62164;BME280;48149;51.132;7.178;2023-08-30T05:21:05;97851.09;;;35.87;31.46
62164;BME280;48149;51.132;7.178;2023-08-30T05:23:31;97856.06;;;36.57;29.86
62164;BME280;48149;51.132;7.178;2023-08-30T05:25:56;97860.31;;;36.10;30.67
62164;BME280;48149;51.132;7.178;2023-08-30T05:28:21;97850.84;;;37.48;28.71
62164;BME280;48149;51.132;7.178;2023-08-30T05:30:47;97853.25;;;37.42;28.42
62164;BME280;48149;51.132;7.178;2023-08-30T05:33:12;97846.25;;;38.29;27.59
62164;BME280;48149;51.132;7.178;2023-08-30T05:35:37;97840.75;;;35.50;31.18
62164;BME280;48149;51.132;7.178;2023-08-30T05:38:02;97838.34;;;36.76;29.65
62164;BME280;48149;51.132;7.178;2023-08-30T05:40:27;97835.50;;;34.12;33.54
62164;BME280;48149;51.132;7.178;2023-08-30T05:42:53;97822.81;;;35.56;32.00
62164;BME280;48149;51.132;7.178;2023-08-30T05:45:20;97827.28;;;35.98;31.15
62164;BME280;48149;51.132;7.178;2023-08-30T05:47:45;97828.63;;;36.30;31.11
62164;BME280;48149;51.132;7.178;2023-08-30T05:50:10;97820.84;;;36.73;30.37
62164;BME280;48149;51.132;7.178;2023-08-30T05:52:35;97821.53;;;37.22;29.85
62164;BME280;48149;51.132;7.178;2023-08-30T05:55:00;97814.59;;;35.73;31.36
62164;BME280;48149;51.132;7.178;2023-08-30T05:57:26;97823.88;;;34.54;31.78
62164;BME280;48149;51.132;7.178;2023-08-30T05:59:53;97816.38;;;35.98;31.68
62164;BME280;48149;51.132;7.178;2023-08-30T06:02:19;97808.31;;;34.75;33.26
62164;BME280;48149;51.132;7.178;2023-08-30T06:04:44;97808.31;;;34.68;33.15
62164;BME280;48149;51.132;7.178;2023-08-30T06:07:09;97816.03;;;34.98;33.25
62164;BME280;48149;51.132;7.178;2023-08-30T06:09:34;97812.88;;;35.21;32.92
62164;BME280;48149;51.132;7.178;2023-08-30T06:12:00;97814.94;;;35.79;32.32
62164;BME280;48149;51.132;7.178;2023-08-30T06:14:25;97812.72;;;35.49;32.88
62164;BME280;48149;51.132;7.178;2023-08-30T06:16:50;97813.63;;;35.25;33.10
62164;BME280;48149;51.132;7.178;2023-08-30T06:19:15;97813.50;;;35.53;32.16
62164;BME280;48149;51.132;7.178;2023-08-30T06:21:40;97818.81;;;34.49;33.18
62164;BME280;48149;51.132;7.178;2023-08-30T06:24:06;97818.50;;;36.75;30.78
62164;BME280;48149;51.132;7.178;2023-08-30T06:26:31;97807.47;;;35.07;33.15
62164;BME280;48149;51.132;7.178;2023-08-30T06:28:56;97808.22;;;37.58;29.46
62164;BME280;48149;51.132;7.178;2023-08-30T06:31:22;97808.75;;;35.71;32.35
62164;BME280;48149;51.132;7.178;2023-08-30T06:33:47;97802.78;;;37.54;30.17
62164;BME280;48149;51.132;7.178;2023-08-30T06:36:13;97804.22;;;35.40;32.55
62164;BME280;48149;51.132;7.178;2023-08-30T06:38:40;97801.25;;;35.93;32.04
62164;BME280;48149;51.132;7.178;2023-08-30T06:41:06;97798.91;;;35.15;32.93
62164;BME280;48149;51.132;7.178;2023-08-30T06:43:31;97784.06;;;35.30;32.55
62164;BME280;48149;51.132;7.178;2023-08-30T06:45:57;97794.34;;;34.56;33.04
62164;BME280;48149;51.132;7.178;2023-08-30T06:48:23;97791.91;;;36.42;31.78
62164;BME280;48149;51.132;7.178;2023-08-30T06:50:48;97793.03;;;36.48;30.33
62164;BME280;48149;51.132;7.178;2023-08-30T06:53:14;97792.16;;;36.96;29.82
62164;BME280;48149;51.132;7.178;2023-08-30T06:55:39;97798.41;;;37.90;28.98
62164;BME280;48149;51.132;7.178;2023-08-30T06:58:05;97791.69;;;37.95;29.20
62164;BME280;48149;51.132;7.178;2023-08-30T07:00:30;97800.88;;;37.81;28.70
62164;BME280;48149;51.132;7.178;2023-08-30T07:02:55;97792.66;;;37.81;29.16
62164;BME280;48149;51.132;7.178;2023-08-30T07:05:21;97790.09;;;36.25;30.31
62164;BME280;48149;51.132;7.178;2023-08-30T07:07:47;97794.69;;;39.88;27.10
62164;BME280;48149;51.132;7.178;2023-08-30T07:10:12;97782.09;;;35.38;32.59
62164;BME280;48149;51.132;7.178;2023-08-30T07:12:38;97793.09;;;38.07;28.86
62164;BME280;48149;51.132;7.178;2023-08-30T07:15:03;97781.50;;;35.75;32.00
62164;BME280;48149;51.132;7.178;2023-08-30T07:17:28;97769.06;;;45.88;25.98
62164;BME280;48149;51.132;7.178;2023-08-30T07:19:54;97782.09;;;36.55;30.66
62164;BME280;48149;51.132;7.178;2023-08-30T07:22:19;97783.25;;;36.51;30.76
62164;BME280;48149;51.132;7.178;2023-08-30T07:24:45;97788.41;;;37.20;29.75
62164;BME280;48149;51.132;7.178;2023-08-30T07:27:10;97780.97;;;38.31;28.85
62164;BME280;48149;51.132;7.178;2023-08-30T07:29:37;97775.19;;;37.49;29.34
62164;BME280;48149;51.132;7.178;2023-08-30T07:32:03;97783.59;;;37.61;28.40
62164;BME280;48149;51.132;7.178;2023-08-30T07:34:28;97786.31;;;37.92;28.44
62164;BME280;48149;51.132;7.178;2023-08-30T07:36:53;97786.16;;;39.11;27.68
62164;BME280;48149;51.132;7.178;2023-08-30T07:39:19;97780.72;;;37.72;29.36
62164;BME280;48149;51.132;7.178;2023-08-30T07:41:44;97768.47;;;37.80;28.72
62164;BME280;48149;51.132;7.178;2023-08-30T07:44:09;97765.03;;;36.81;29.73
62164;BME280;48149;51.132;7.178;2023-08-30T07:46:34;97771.97;;;39.36;27.67
62164;BME280;48149;51.132;7.178;2023-08-30T07:48:59;97773.09;;;38.33;28.29
62164;BME280;48149;51.132;7.178;2023-08-30T07:51:25;97769.34;;;36.79;28.95
62164;BME280;48149;51.132;7.178;2023-08-30T07:53:50;97767.34;;;35.98;30.85
62164;BME280;48149;51.132;7.178;2023-08-30T07:56:15;97772.88;;;37.47;28.69
62164;BME280;48149;51.132;7.178;2023-08-30T07:58:40;97781.75;;;37.21;28.95
62164;BME280;48149;51.132;7.178;2023-08-30T08:01:07;97770.19;;;34.90;31.12
62164;BME280;48149;51.132;7.178;2023-08-30T08:03:33;97773.59;;;36.83;28.00
62164;BME280;48149;51.132;7.178;2023-08-30T08:05:58;97772.09;;;38.00;27.81
62164;BME280;48149;51.132;7.178;2023-08-30T08:08:24;97772.06;;;39.32;27.01
62164;BME280;48149;51.132;7.178;2023-08-30T08:10:49;97768.47;;;36.89;29.12
62164;BME280;48149;51.132;7.178;2023-08-30T08:13:15;97772.94;;;38.86;27.02
62164;BME280;48149;51.132;7.178;2023-08-30T08:15:40;97772.50;;;39.47;26.29
62164;BME280;48149;51.132;7.178;2023-08-30T08:18:05;97772.44;;;39.51;26.70
62164;BME280;48149;51.132;7.178;2023-08-30T08:20:30;97772.75;;;38.08;28.40
62164;BME280;48149;51.132;7.178;2023-08-30T08:22:56;97770.66;;;39.60;26.91
62164;BME280;48149;51.132;7.178;2023-08-30T08:25:22;97763.69;;;37.61;27.73
62164;BME280;48149;51.132;7.178;2023-08-30T08:27:49;97771.72;;;38.68;27.04
62164;BME280;48149;51.132;7.178;2023-08-30T08:30:14;97776.75;;;38.03;27.50
62164;BME280;48149;51.132;7.178;2023-08-30T08:32:39;97773.63;;;38.51;26.73
62164;BME280;48149;51.132;7.178;2023-08-30T08:35:04;97773.78;;;37.64;27.79
62164;BME280;48149;51.132;7.178;2023-08-30T08:37:30;97776.63;;;38.57;25.68
62164;BME280;48149;51.132;7.178;2023-08-30T08:39:56;97781.19;;;40.14;24.97
62164;BME280;48149;51.132;7.178;2023-08-30T08:42:21;97771.88;;;39.23;25.47
62164;BME280;48149;51.132;7.178;2023-08-30T08:44:46;97773.84;;;36.96;27.47
62164;BME280;48149;51.132;7.178;2023-08-30T08:47:16;97780.75;;;38.88;25.75
62164;BME280;48149;51.132;7.178;2023-08-30T08:49:43;97771.13;;;39.39;25.75
62164;BME280;48149;51.132;7.178;2023-08-30T08:52:08;97766.28;;;40.15;25.19
62164;BME280;48149;51.132;7.178;2023-08-30T08:54:34;97770.16;;;36.35;28.49
62164;BME280;48149;51.132;7.178;2023-08-30T08:57:00;97762.31;;;37.76;27.12
62164;BME280;48149;51.132;7.178;2023-08-30T08:59:27;97767.22;;;39.56;26.28
62164;BME280;48149;51.132;7.178;2023-08-30T09:01:52;97770.09;;;41.07;24.12
62164;BME280;48149;51.132;7.178;2023-08-30T09:04:18;97771.94;;;42.62;23.49
62164;BME280;48149;51.132;7.178;2023-08-30T09:06:43;97769.25;;;40.53;24.07
62164;BME280;48149;51.132;7.178;2023-08-30T09:09:09;97766.44;;;38.11;26.24
62164;BME280;48149;51.132;7.178;2023-08-30T09:11:34;97753.75;;;39.81;26.15
62164;BME280;48149;51.132;7.178;2023-08-30T09:14:00;97757.19;;;38.05;26.23
62164;BME280;48149;51.132;7.178;2023-08-30T09:16:25;97753.06;;;39.77;24.60
62164;BME280;48149;51.132;7.178;2023-08-30T09:18:57;97756.09;;;40.89;24.53
62164;BME280;48149;51.132;7.178;2023-08-30T09:21:23;97758.03;;;41.84;23.78
62164;BME280;48149;51.132;7.178;2023-08-30T09:23:56;97747.53;;;41.16;23.97
62164;BME280;48149;51.132;7.178;2023-08-30T09:26:21;97748.50;;;41.22;23.15
62164;BME280;48149;51.132;7.178;2023-08-30T09:28:46;97754.41;;;42.34;23.07
62164;BME280;48149;51.132;7.178;2023-08-30T09:31:16;97743.16;;;41.56;22.70
62164;BME280;48149;51.132;7.178;2023-08-30T09:33:44;97738.84;;;42.18;22.72
62164;BME280;48149;51.132;7.178;2023-08-30T09:36:10;97735.81;;;43.25;22.03
62164;BME280;48149;51.132;7.178;2023-08-30T09:38:36;97737.13;;;41.48;22.88
62164;BME280;48149;51.132;7.178;2023-08-30T09:41:04;97730.66;;;40.60;24.40
62164;BME280;48149;51.132;7.178;2023-08-30T09:43:30;97731.22;;;40.96;24.53
62164;BME280;48149;51.132;7.178;2023-08-30T09:45:57;97734.81;;;38.79;26.08
62164;BME280;48149;51.132;7.178;2023-08-30T09:48:22;97726.63;;;38.76;25.73
62164;BME280;48149;51.132;7.178;2023-08-30T09:50:52;97728.19;;;38.11;26.04
62164;BME280;48149;51.132;7.178;2023-08-30T09:53:19;97724.66;;;37.60;26.87
62164;BME280;48149;51.132;7.178;2023-08-30T09:55:46;97710.88;;;39.39;25.51
62164;BME280;48149;51.132;7.178;2023-08-30T09:58:12;97721.63;;;38.71;26.03
62164;BME280;48149;51.132;7.178;2023-08-30T10:00:37;97717.06;;;39.43;25.60
62164;BME280;48149;51.132;7.178;2023-08-30T10:03:02;97717.84;;;41.11;24.10
62164;BME280;48149;51.132;7.178;2023-08-30T10:05:28;97712.66;;;39.10;25.92
62164;BME280;48149;51.132;7.178;2023-08-30T10:07:54;97718.97;;;37.21;27.63
62164;BME280;48149;51.132;7.178;2023-08-30T10:10:20;97721.50;;;39.17;25.58
62164;BME280;48149;51.132;7.178;2023-08-30T10:12:48;97745.53;;;37.51;29.05
62164;BME280;48149;51.132;7.178;2023-08-30T10:15:14;97740.16;;;37.97;29.29
62164;BME280;48149;51.132;7.178;2023-08-30T10:17:40;97729.94;;;39.07;28.54
62164;BME280;48149;51.132;7.178;2023-08-30T10:20:06;97729.28;;;37.36;30.73
62164;BME280;48149;51.132;7.178;2023-08-30T10:22:32;97725.94;;;37.56;29.08
62164;BME280;48149;51.132;7.178;2023-08-30T10:25:20;97728.28;;;37.80;29.30
62164;BME280;48149;51.132;7.178;2023-08-30T10:27:46;97733.31;;;38.94;27.54
62164;BME280;48149;51.132;7.178;2023-08-30T10:30:13;97727.72;;;40.22;26.84
62164;BME280;48149;51.132;7.178;2023-08-30T10:32:43;97728.81;;;37.45;29.05
62164;BME280;48149;51.132;7.178;2023-08-30T10:35:12;97726.41;;;40.26;26.33
62164;BME280;48149;51.132;7.178;2023-08-30T10:37:38;97719.91;;;40.20;25.86
62164;BME280;48149;51.132;7.178;2023-08-30T10:40:03;97720.31;;;39.54;27.46
62164;BME280;48149;51.132;7.178;2023-08-30T10:42:29;97720.38;;;38.56;28.52
62164;BME280;48149;51.132;7.178;2023-08-30T10:45:01;97712.63;;;39.81;27.18
62164;BME280;48149;51.132;7.178;2023-08-30T10:47:36;97701.97;;;40.89;25.38
62164;BME280;48149;51.132;7.178;2023-08-30T10:50:12;97717.94;;;41.07;25.69
62164;BME280;48149;51.132;7.178;2023-08-30T10:52:38;97716.66;;;44.10;24.66
62164;BME280;48149;51.132;7.178;2023-08-30T10:55:12;97716.09;;;41.92;24.54
62164;BME280;48149;51.132;7.178;2023-08-30T10:57:41;97714.53;;;40.17;25.88
62164;BME280;48149;51.132;7.178;2023-08-30T11:00:10;97710.47;;;37.72;28.50
62164;BME280;48149;51.132;7.178;2023-08-30T11:02:36;97708.56;;;37.12;30.00
62164;BME280;48149;51.132;7.178;2023-08-30T11:05:02;97708.94;;;39.20;27.62
62164;BME280;48149;51.132;7.178;2023-08-30T11:07:28;97707.03;;;38.15;29.60
62164;BME280;48149;51.132;7.178;2023-08-30T11:09:53;97695.66;;;38.82;28.52
62164;BME280;48149;51.132;7.178;2023-08-30T11:12:18;97701.13;;;40.19;26.56
62164;BME280;48149;51.132;7.178;2023-08-30T11:14:47;97697.34;;;40.86;25.92
62164;BME280;48149;51.132;7.178;2023-08-30T11:17:12;97693.09;;;39.95;27.78
62164;BME280;48149;51.132;7.178;2023-08-30T11:19:37;97690.69;;;39.65;27.72
62164;BME280;48149;51.132;7.178;2023-08-30T11:22:02;97685.66;;;41.24;25.64
62164;BME280;48149;51.132;7.178;2023-08-30T11:24:28;97690.78;;;37.58;29.98
62164;BME280;48149;51.132;7.178;2023-08-30T11:26:53;97699.56;;;38.42;29.23
62164;BME280;48149;51.132;7.178;2023-08-30T11:29:19;97710.38;;;38.03;31.21
62164;BME280;48149;51.132;7.178;2023-08-30T11:31:44;97731.28;;;37.06;33.19
62164;BME280;48149;51.132;7.178;2023-08-30T11:34:10;97731.84;;;33.96;38.42
62164;BME280;48149;51.132;7.178;2023-08-30T11:36:35;97724.28;;;35.13;36.31
62164;BME280;48149;51.132;7.178;2023-08-30T11:39:02;97738.88;;;35.47;37.02
62164;BME280;48149;51.132;7.178;2023-08-30T11:41:27;97742.19;;;35.03;38.96
62164;BME280;48149;51.132;7.178;2023-08-30T11:43:53;97729.25;;;35.91;36.25
62164;BME280;48149;51.132;7.178;2023-08-30T11:46:19;97726.44;;;34.24;37.49
62164;BME280;48149;51.132;7.178;2023-08-30T11:48:45;97730.53;;;36.27;36.45
62164;BME280;48149;51.132;7.178;2023-08-30T11:51:11;97728.75;;;36.03;35.54
62164;BME280;48149;51.132;7.178;2023-08-30T11:53:36;97720.56;;;34.61;37.95
62164;BME280;48149;51.132;7.178;2023-08-30T11:56:02;97709.69;;;52.22;17.95
62164;BME280;48149;51.132;7.178;2023-08-30T11:58:27;97710.88;;;46.45;23.35
62164;BME280;48149;51.132;7.178;2023-08-30T12:00:56;97714.13;;;43.36;25.43
62164;BME280;48149;51.132;7.178;2023-08-30T12:03:21;97714.50;;;39.52;30.71
62164;BME280;48149;51.132;7.178;2023-08-30T12:05:47;97713.81;;;40.86;29.52
62164;BME280;48149;51.132;7.178;2023-08-30T12:08:23;97715.34;;;38.93;30.72
62164;BME280;48149;51.132;7.178;2023-08-30T12:10:48;97712.41;;;39.24;30.62
62164;BME280;48149;51.132;7.178;2023-08-30T12:13:23;97716.69;;;39.21;30.48
62164;BME280;48149;51.132;7.178;2023-08-30T12:15:49;97719.81;;;40.69;28.75
62164;BME280;48149;51.132;7.178;2023-08-30T12:18:14;97717.59;;;38.99;30.90
62164;BME280;48149;51.132;7.178;2023-08-30T12:20:40;97720.91;;;49.38;20.91
62164;BME280;48149;51.132;7.178;2023-08-30T12:23:05;97723.00;;;38.39;31.65
62164;BME280;48149;51.132;7.178;2023-08-30T12:25:30;97716.25;;;39.07;31.77
62164;BME280;48149;51.132;7.178;2023-08-30T12:27:57;97716.34;;;39.39;30.55
62164;BME280;48149;51.132;7.178;2023-08-30T12:30:22;97715.28;;;37.04;34.00
62164;BME280;48149;51.132;7.178;2023-08-30T12:32:47;97716.31;;;40.23;29.51
62164;BME280;48149;51.132;7.178;2023-08-30T12:35:13;97716.91;;;38.09;32.84
62164;BME280;48149;51.132;7.178;2023-08-30T12:37:38;97717.84;;;38.22;32.88
62164;BME280;48149;51.132;7.178;2023-08-30T12:40:03;97715.25;;;38.38;32.71
62164;BME280;48149;51.132;7.178;2023-08-30T12:42:29;97718.31;;;36.42;35.23
62164;BME280;48149;51.132;7.178;2023-08-30T12:44:54;97707.00;;;39.01;32.13
62164;BME280;48149;51.132;7.178;2023-08-30T12:47:19;97703.84;;;39.38;30.75
62164;BME280;48149;51.132;7.178;2023-08-30T12:49:45;97703.28;;;36.64;35.87
62164;BME280;48149;51.132;7.178;2023-08-30T12:52:11;97701.81;;;38.01;33.78